sensor_id;sensor_type;location;lat;lon;timestamp;temperature;humidity
38938;DHT22;24727;51.974;20.868;2024-01-10T00:02:24;-8.30;99.90
38938;DHT22;24727;51.974;20.868;2024-01-10T00:04:50;-8.30;99.90
38938;DHT22;24727;51.974;20.868;2024-01-10T00:07:16;-8.30;99.90
38938;DHT22;24727;51.974;20.868;2024-01-10T00:09:41;-8.30;99.90
38938;DHT22;24727;51.974;20.868;2024-01-10T00:12:07;-8.30;99.90
38938;DHT22;24727;51.974;20.868;2024-01-10T00:14:33;-8.30;99.90
38938;DHT22;24727;51.974;20.868;2024-01-10T00:16:59;-8.30;99.90
38938;DHT22;24727;51.974;20.868;2024-01-10T00:19:25;-8.40;99.90
38938;DHT22;24727;51.974;20.868;2024-01-10T00:21:51;-8.40;99.90
38938;DHT22;24727;51.974;20.868;2024-01-10T00:24:17;-8.40;99.90
38938;DHT22;24727;51.974;20.868;2024-01-10T00:26:43;-8.40;99.90
38938;DHT22;24727;51.974;20.868;2024-01-10T00:29:09;-8.40;99.90
38938;DHT22;24727;51.974;20.868;2024-01-10T00:31:35;-8.40;99.90
38938;DHT22;24727;51.974;20.868;2024-01-10T00:34:00;-8.40;99.90
38938;DHT22;24727;51.974;20.868;2024-01-10T00:36:26;-8.40;99.90
38938;DHT22;24727;51.974;20.868;2024-01-10T00:38:52;-8.40;99.90
38938;DHT22;24727;51.974;20.868;2024-01-10T00:41:18;-8.40;99.90
38938;DHT22;24727;51.974;20.868;2024-01-10T00:43:43;-8.40;99.90
38938;DHT22;24727;51.974;20.868;2024-01-10T00:46:09;-8.40;99.90
38938;DHT22;24727;51.974;20.868;2024-01-10T00:48:35;-8.50;99.90
38938;DHT22;24727;51.974;20.868;2024-01-10T00:51:01;-8.40;99.90
38938;DHT22;24727;51.974;20.868;2024-01-10T00:53:27;-8.40;99.90
38938;DHT22;24727;51.974;20.868;2024-01-10T00:55:54;-8.40;99.90
38938;DHT22;24727;51.974;20.868;2024-01-10T00:58:20;-8.40;99.90
38938;DHT22;24727;51.974;20.868;2024-01-10T01:00:47;-8.40;99.90
38938;DHT22;24727;51.974;20.868;2024-01-10T01:03:13;-8.40;99.90
38938;DHT22;24727;51.974;20.868;2024-01-10T01:05:39;-8.30;99.90
38938;DHT22;24727;51.974;20.868;2024-01-10T01:08:06;-8.30;99.90
38938;DHT22;24727;51.974;20.868;2024-01-10T01:10:33;-8.30;99.90
38938;DHT22;24727;51.974;20.868;2024-01-10T01:12:59;-8.30;99.90
38938;DHT22;24727;51.974;20.868;2024-01-10T01:15:26;-8.30;99.90
38938;DHT22;24727;51.974;20.868;2024-01-10T01:17:52;-8.30;99.90
38938;DHT22;24727;51.974;20.868;2024-01-10T01:20:18;-8.30;99.90
38938;DHT22;24727;51.974;20.868;2024-01-10T01:22:45;-8.30;99.90
38938;DHT22;24727;51.974;20.868;2024-01-10T01:25:11;-8.40;99.90
38938;DHT22;24727;51.974;20.868;2024-01-10T01:27:38;-8.30;99.90
38938;DHT22;24727;51.974;20.868;2024-01-10T01:30:04;-8.30;99.90
38938;DHT22;24727;51.974;20.868;2024-01-10T01:32:31;-8.30;1.40
38938;DHT22;24727;51.974;20.868;2024-01-10T01:34:57;-8.30;99.90
38938;DHT22;24727;51.974;20.868;2024-01-10T01:37:23;-8.30;99.90
38938;DHT22;24727;51.974;20.868;2024-01-10T01:39:49;-8.30;99.90
38938;DHT22;24727;51.974;20.868;2024-01-10T01:42:16;-8.30;99.90
38938;DHT22;24727;51.974;20.868;2024-01-10T01:44:42;-8.30;99.90
38938;DHT22;24727;51.974;20.868;2024-01-10T01:47:09;-8.40;99.90
38938;DHT22;24727;51.974;20.868;2024-01-10T01:49:35;-8.40;99.90
38938;DHT22;24727;51.974;20.868;2024-01-10T01:52:02;-8.40;99.90
38938;DHT22;24727;51.974;20.868;2024-01-10T01:54:29;-8.40;99.90
38938;DHT22;24727;51.974;20.868;2024-01-10T01:56:57;-8.40;99.90
38938;DHT22;24727;51.974;20.868;2024-01-10T01:59:24;-8.50;99.90
38938;DHT22;24727;51.974;20.868;2024-01-10T02:01:54;-8.50;99.90
38938;DHT22;24727;51.974;20.868;2024-01-10T02:04:20;-8.50;99.90
38938;DHT22;24727;51.974;20.868;2024-01-10T02:06:46;-8.50;99.90
38938;DHT22;24727;51.974;20.868;2024-01-10T02:09:12;-8.50;99.90
38938;DHT22;24727;51.974;20.868;2024-01-10T02:11:39;-8.50;99.90
38938;DHT22;24727;51.974;20.868;2024-01-10T02:14:05;-8.50;99.90
38938;DHT22;24727;51.974;20.868;2024-01-10T02:16:31;-8.60;99.90
38938;DHT22;24727;51.974;20.868;2024-01-10T02:18:56;-8.60;99.90
38938;DHT22;24727;51.974;20.868;2024-01-10T02:21:22;-8.70;99.90
38938;DHT22;24727;51.974;20.868;2024-01-10T02:23:48;-8.60;99.90
38938;DHT22;24727;51.974;20.868;2024-01-10T02:26:15;-8.50;99.90
38938;DHT22;24727;51.974;20.868;2024-01-10T02:28:41;-8.60;99.90
38938;DHT22;24727;51.974;20.868;2024-01-10T02:31:06;-8.60;99.90
38938;DHT22;24727;51.974;20.868;2024-01-10T02:33:32;-8.40;99.90
38938;DHT22;24727;51.974;20.868;2024-01-10T02:35:58;-8.40;99.90
38938;DHT22;24727;51.974;20.868;2024-01-10T02:38:24;-8.40;99.90
38938;DHT22;24727;51.974;20.868;2024-01-10T02:40:50;-8.30;99.90
38938;DHT22;24727;51.974;20.868;2024-01-10T02:43:16;-8.40;99.90
38938;DHT22;24727;51.974;20.868;2024-01-10T02:45:42;-8.30;99.90
38938;DHT22;24727;51.974;20.868;2024-01-10T02:48:07;-8.20;99.90
38938;DHT22;24727;51.974;20.868;2024-01-10T02:50:33;-8.20;99.90
38938;DHT22;24727;51.974;20.868;2024-01-10T02:52:59;-8.10;99.90
38938;DHT22;24727;51.974;20.868;2024-01-10T02:55:25;-8.20;99.90
38938;DHT22;24727;51.974;20.868;2024-01-10T02:57:51;-8.10;99.90
38938;DHT22;24727;51.974;20.868;2024-01-10T03:00:17;-8.20;99.90
38938;DHT22;24727;51.974;20.868;2024-01-10T03:02:43;-8.20;99.90
38938;DHT22;24727;51.974;20.868;2024-01-10T03:05:09;-8.20;99.90
38938;DHT22;24727;51.974;20.868;2024-01-10T03:07:35;-8.20;99.90
38938;DHT22;24727;51.974;20.868;2024-01-10T03:10:00;-8.20;99.90
38938;DHT22;24727;51.974;20.868;2024-01-10T03:12:26;-8.20;99.90
38938;DHT22;24727;51.974;20.868;2024-01-10T03:14:52;-8.20;99.90
38938;DHT22;24727;51.974;20.868;2024-01-10T03:17:18;-8.20;99.90
38938;DHT22;24727;51.974;20.868;2024-01-10T03:19:43;-8.20;99.90
38938;DHT22;24727;51.974;20.868;2024-01-10T03:22:10;-8.20;99.90
38938;DHT22;24727;51.974;20.868;2024-01-10T03:24:38;-8.20;99.90
38938;DHT22;24727;51.974;20.868;2024-01-10T03:27:05;-8.20;99.90
38938;DHT22;24727;51.974;20.868;2024-01-10T03:29:31;-8.30;99.90
38938;DHT22;24727;51.974;20.868;2024-01-10T03:31:57;-8.30;99.90
38938;DHT22;24727;51.974;20.868;2024-01-10T03:34:23;-8.30;99.90
38938;DHT22;24727;51.974;20.868;2024-01-10T03:36:49;-8.40;99.90
38938;DHT22;24727;51.974;20.868;2024-01-10T03:39:14;-8.40;99.90
38938;DHT22;24727;51.974;20.868;2024-01-10T03:41:40;-8.30;99.90
38938;DHT22;24727;51.974;20.868;2024-01-10T03:44:06;-8.30;99.90
38938;DHT22;24727;51.974;20.868;2024-01-10T03:46:32;-8.30;99.90
38938;DHT22;24727;51.974;20.868;2024-01-10T03:48:58;-8.30;99.90
38938;DHT22;24727;51.974;20.868;2024-01-10T03:51:23;-8.30;99.90
38938;DHT22;24727;51.974;20.868;2024-01-10T03:53:50;-8.40;99.90
38938;DHT22;24727;51.974;20.868;2024-01-10T03:56:16;-8.30;99.90
38938;DHT22;24727;51.974;20.868;2024-01-10T03:58:42;-8.30;99.90
38938;DHT22;24727;51.974;20.868;2024-01-10T04:01:08;-8.30;99.90
38938;DHT22;24727;51.974;20.868;2024-01-10T04:03:35;-8.30;99.90
38938;DHT22;24727;51.974;20.868;2024-01-10T04:06:02;-8.30;99.90
38938;DHT22;24727;51.974;20.868;2024-01-10T04:08:28;-8.20;99.90
38938;DHT22;24727;51.974;20.868;2024-01-10T04:10:54;-8.10;99.90
38938;DHT22;24727;51.974;20.868;2024-01-10T04:13:20;-8.10;99.90
38938;DHT22;24727;51.974;20.868;2024-01-10T04:15:45;-8.10;99.90
38938;DHT22;24727;51.974;20.868;2024-01-10T04:18:12;-8.00;99.90
38938;DHT22;24727;51.974;20.868;2024-01-10T04:20:37;-7.90;99.90
38938;DHT22;24727;51.974;20.868;2024-01-10T04:23:03;-7.90;99.90
38938;DHT22;24727;51.974;20.868;2024-01-10T04:25:29;-8.00;99.90
38938;DHT22;24727;51.974;20.868;2024-01-10T04:27:55;-8.00;99.90
38938;DHT22;24727;51.974;20.868;2024-01-10T04:30:21;-8.10;99.90
38938;DHT22;24727;51.974;20.868;2024-01-10T04:32:47;-8.00;99.90
38938;DHT22;24727;51.974;20.868;2024-01-10T04:35:13;-8.00;99.90
38938;DHT22;24727;51.974;20.868;2024-01-10T04:37:39;-8.00;99.90
38938;DHT22;24727;51.974;20.868;2024-01-10T04:40:05;-8.00;99.90
38938;DHT22;24727;51.974;20.868;2024-01-10T04:42:31;-8.00;99.90
38938;DHT22;24727;51.974;20.868;2024-01-10T04:44:57;-8.00;99.90
38938;DHT22;24727;51.974;20.868;2024-01-10T04:47:23;-8.10;99.90
38938;DHT22;24727;51.974;20.868;2024-01-10T04:49:49;-8.10;99.90
38938;DHT22;24727;51.974;20.868;2024-01-10T04:52:14;-8.10;99.90
38938;DHT22;24727;51.974;20.868;2024-01-10T04:54:40;-8.00;99.90
38938;DHT22;24727;51.974;20.868;2024-01-10T04:57:06;-8.00;99.90
38938;DHT22;24727;51.974;20.868;2024-01-10T04:59:33;-8.10;99.90
38938;DHT22;24727;51.974;20.868;2024-01-10T05:01:59;-8.10;99.90
38938;DHT22;24727;51.974;20.868;2024-01-10T05:04:24;-8.10;99.90
38938;DHT22;24727;51.974;20.868;2024-01-10T05:06:50;-8.00;99.90
38938;DHT22;24727;51.974;20.868;2024-01-10T05:09:16;-8.10;99.90
38938;DHT22;24727;51.974;20.868;2024-01-10T05:11:42;-8.10;99.90
38938;DHT22;24727;51.974;20.868;2024-01-10T05:14:08;-8.00;99.90
38938;DHT22;24727;51.974;20.868;2024-01-10T05:16:34;-8.00;99.90
38938;DHT22;24727;51.974;20.868;2024-01-10T05:19:02;-8.00;99.90
38938;DHT22;24727;51.974;20.868;2024-01-10T05:21:30;-8.00;99.90
38938;DHT22;24727;51.974;20.868;2024-01-10T05:23:56;-7.90;99.90
38938;DHT22;24727;51.974;20.868;2024-01-10T05:26:22;-8.00;99.90
38938;DHT22;24727;51.974;20.868;2024-01-10T05:28:47;-8.00;99.90
38938;DHT22;24727;51.974;20.868;2024-01-10T05:31:13;-8.00;99.90
38938;DHT22;24727;51.974;20.868;2024-01-10T05:33:39;-8.00;99.90
38938;DHT22;24727;51.974;20.868;2024-01-10T05:36:05;-8.00;99.90
38938;DHT22;24727;51.974;20.868;2024-01-10T05:38:31;-8.00;99.90
38938;DHT22;24727;51.974;20.868;2024-01-10T05:40:57;-8.00;99.90
38938;DHT22;24727;51.974;20.868;2024-01-10T05:43:22;-8.00;99.90
38938;DHT22;24727;51.974;20.868;2024-01-10T05:45:49;-8.00;99.90
38938;DHT22;24727;51.974;20.868;2024-01-10T05:48:14;-8.10;99.90
38938;DHT22;24727;51.974;20.868;2024-01-10T05:50:42;-8.10;99.90
38938;DHT22;24727;51.974;20.868;2024-01-10T05:53:08;-8.10;99.90
38938;DHT22;24727;51.974;20.868;2024-01-10T05:55:35;-8.10;99.90
38938;DHT22;24727;51.974;20.868;2024-01-10T05:58:02;-8.10;99.90
38938;DHT22;24727;51.974;20.868;2024-01-10T06:00:28;-8.10;99.90
38938;DHT22;24727;51.974;20.868;2024-01-10T06:02:54;-8.10;99.90
38938;DHT22;24727;51.974;20.868;2024-01-10T06:05:19;-8.10;99.90
38938;DHT22;24727;51.974;20.868;2024-01-10T06:07:45;-8.10;99.90
38938;DHT22;24727;51.974;20.868;2024-01-10T06:10:11;-8.10;99.90
38938;DHT22;24727;51.974;20.868;2024-01-10T06:12:37;-8.10;99.90
38938;DHT22;24727;51.974;20.868;2024-01-10T06:15:04;-8.10;99.90
38938;DHT22;24727;51.974;20.868;2024-01-10T06:17:30;-8.20;99.90
38938;DHT22;24727;51.974;20.868;2024-01-10T06:19:57;-8.20;99.90
38938;DHT22;24727;51.974;20.868;2024-01-10T06:22:25;-8.10;99.90
38938;DHT22;24727;51.974;20.868;2024-01-10T06:24:52;-8.10;99.90
38938;DHT22;24727;51.974;20.868;2024-01-10T06:27:17;-8.10;99.90
38938;DHT22;24727;51.974;20.868;2024-01-10T06:29:44;-8.10;99.90
38938;DHT22;24727;51.974;20.868;2024-01-10T06:32:13;-8.10;99.90
38938;DHT22;24727;51.974;20.868;2024-01-10T06:34:40;-8.10;99.90
38938;DHT22;24727;51.974;20.868;2024-01-10T06:37:06;-8.20;99.90
38938;DHT22;24727;51.974;20.868;2024-01-10T06:39:35;-8.10;99.90
38938;DHT22;24727;51.974;20.868;2024-01-10T06:42:01;-8.10;99.90
38938;DHT22;24727;51.974;20.868;2024-01-10T06:44:30;-8.10;99.90
38938;DHT22;24727;51.974;20.868;2024-01-10T06:46:55;-8.10;99.90
38938;DHT22;24727;51.974;20.868;2024-01-10T06:49:21;-8.00;99.90
38938;DHT22;24727;51.974;20.868;2024-01-10T06:51:47;-8.10;99.90
38938;DHT22;24727;51.974;20.868;2024-01-10T06:54:13;-8.10;99.90
38938;DHT22;24727;51.974;20.868;2024-01-10T06:56:40;-8.00;99.90
38938;DHT22;24727;51.974;20.868;2024-01-10T06:59:06;-8.00;99.90
38938;DHT22;24727;51.974;20.868;2024-01-10T07:01:32;-8.00;99.90
38938;DHT22;24727;51.974;20.868;2024-01-10T07:03:58;-7.90;99.90
38938;DHT22;24727;51.974;20.868;2024-01-10T07:06:24;-7.90;99.90
38938;DHT22;24727;51.974;20.868;2024-01-10T07:08:51;-7.90;99.90
38938;DHT22;24727;51.974;20.868;2024-01-10T07:11:18;-7.90;99.90
38938;DHT22;24727;51.974;20.868;2024-01-10T07:13:47;-7.90;99.90
38938;DHT22;24727;51.974;20.868;2024-01-10T07:16:13;-7.90;99.90
38938;DHT22;24727;51.974;20.868;2024-01-10T07:18:42;-7.90;99.90
38938;DHT22;24727;51.974;20.868;2024-01-10T07:21:09;-7.80;99.90
38938;DHT22;24727;51.974;20.868;2024-01-10T07:23:36;-7.80;99.90
38938;DHT22;24727;51.974;20.868;2024-01-10T07:26:06;-7.80;99.90
38938;DHT22;24727;51.974;20.868;2024-01-10T07:28:31;-7.80;99.90
38938;DHT22;24727;51.974;20.868;2024-01-10T07:30:58;-7.80;99.90
38938;DHT22;24727;51.974;20.868;2024-01-10T07:33:24;-7.70;99.90
38938;DHT22;24727;51.974;20.868;2024-01-10T07:35:50;-7.70;99.90
38938;DHT22;24727;51.974;20.868;2024-01-10T07:38:16;-7.70;99.90
38938;DHT22;24727;51.974;20.868;2024-01-10T07:40:41;-7.60;99.90
38938;DHT22;24727;51.974;20.868;2024-01-10T07:43:07;-7.60;99.90
38938;DHT22;24727;51.974;20.868;2024-01-10T07:45:33;-7.50;99.90
38938;DHT22;24727;51.974;20.868;2024-01-10T07:47:59;-7.50;99.90
38938;DHT22;24727;51.974;20.868;2024-01-10T07:50:25;-7.50;99.90
38938;DHT22;24727;51.974;20.868;2024-01-10T07:53:14;-7.40;99.90
38938;DHT22;24727;51.974;20.868;2024-01-10T07:55:43;-7.30;99.90
38938;DHT22;24727;51.974;20.868;2024-01-10T07:58:09;-7.30;99.90
38938;DHT22;24727;51.974;20.868;2024-01-10T08:00:35;-7.30;99.90
38938;DHT22;24727;51.974;20.868;2024-01-10T08:03:01;-7.20;99.90
38938;DHT22;24727;51.974;20.868;2024-01-10T08:05:27;-7.20;99.90
38938;DHT22;24727;51.974;20.868;2024-01-10T08:07:52;-7.10;99.90
38938;DHT22;24727;51.974;20.868;2024-01-10T08:10:18;-7.10;99.90
38938;DHT22;24727;51.974;20.868;2024-01-10T08:12:44;-7.10;99.90
38938;DHT22;24727;51.974;20.868;2024-01-10T08:15:10;-7.00;99.90
38938;DHT22;24727;51.974;20.868;2024-01-10T08:17:36;-6.90;99.90
38938;DHT22;24727;51.974;20.868;2024-01-10T08:20:07;-6.90;99.90
38938;DHT22;24727;51.974;20.868;2024-01-10T08:22:33;-6.80;99.90
38938;DHT22;24727;51.974;20.868;2024-01-10T08:24:59;-6.80;99.90
38938;DHT22;24727;51.974;20.868;2024-01-10T08:27:25;-6.70;99.90
38938;DHT22;24727;51.974;20.868;2024-01-10T08:29:51;-6.70;99.90
38938;DHT22;24727;51.974;20.868;2024-01-10T08:32:17;-6.60;99.90
38938;DHT22;24727;51.974;20.868;2024-01-10T08:34:44;-6.60;99.90
38938;DHT22;24727;51.974;20.868;2024-01-10T08:37:10;-6.50;99.90
38938;DHT22;24727;51.974;20.868;2024-01-10T08:39:36;-6.50;99.90
38938;DHT22;24727;51.974;20.868;2024-01-10T08:42:02;-6.40;99.90
38938;DHT22;24727;51.974;20.868;2024-01-10T08:44:28;-6.40;99.90
38938;DHT22;24727;51.974;20.868;2024-01-10T08:46:54;-6.30;99.90
38938;DHT22;24727;51.974;20.868;2024-01-10T08:49:20;-6.30;99.90
38938;DHT22;24727;51.974;20.868;2024-01-10T08:51:46;-6.20;99.90
38938;DHT22;24727;51.974;20.868;2024-01-10T08:54:12;-6.20;99.90
38938;DHT22;24727;51.974;20.868;2024-01-10T08:56:43;-6.10;99.90
38938;DHT22;24727;51.974;20.868;2024-01-10T08:59:11;-6.10;99.90
38938;DHT22;24727;51.974;20.868;2024-01-10T09:01:37;-6.10;99.90
38938;DHT22;24727;51.974;20.868;2024-01-10T09:04:04;-6.00;99.90
38938;DHT22;24727;51.974;20.868;2024-01-10T09:06:34;-5.90;99.90
38938;DHT22;24727;51.974;20.868;2024-01-10T09:09:01;-5.90;99.90
38938;DHT22;24727;51.974;20.868;2024-01-10T09:11:28;-5.80;99.90
38938;DHT22;24727;51.974;20.868;2024-01-10T09:13:54;-5.80;99.90
38938;DHT22;24727;51.974;20.868;2024-01-10T09:16:20;-5.70;99.90
38938;DHT22;24727;51.974;20.868;2024-01-10T09:18:45;-5.60;99.90
38938;DHT22;24727;51.974;20.868;2024-01-10T09:21:11;-5.50;99.90
38938;DHT22;24727;51.974;20.868;2024-01-10T09:23:37;-5.50;99.90
38938;DHT22;24727;51.974;20.868;2024-01-10T09:26:03;-5.40;99.90
38938;DHT22;24727;51.974;20.868;2024-01-10T09:28:29;-5.40;99.90
38938;DHT22;24727;51.974;20.868;2024-01-10T09:30:55;-5.20;99.90
38938;DHT22;24727;51.974;20.868;2024-01-10T09:33:21;-5.10;99.90
38938;DHT22;24727;51.974;20.868;2024-01-10T09:35:48;-5.00;99.90
38938;DHT22;24727;51.974;20.868;2024-01-10T09:38:14;-5.00;99.90
38938;DHT22;24727;51.974;20.868;2024-01-10T09:40:40;-4.90;99.90
38938;DHT22;24727;51.974;20.868;2024-01-10T09:43:06;-4.70;99.90
38938;DHT22;24727;51.974;20.868;2024-01-10T09:45:43;-4.50;99.90
38938;DHT22;24727;51.974;20.868;2024-01-10T09:48:15;-4.50;99.90
38938;DHT22;24727;51.974;20.868;2024-01-10T09:50:44;-4.40;99.90
38938;DHT22;24727;51.974;20.868;2024-01-10T09:53:18;-4.30;99.90
38938;DHT22;24727;51.974;20.868;2024-01-10T09:55:46;-4.20;99.90
38938;DHT22;24727;51.974;20.868;2024-01-10T09:58:12;-4.20;99.90
38938;DHT22;24727;51.974;20.868;2024-01-10T10:00:39;-4.20;99.90
38938;DHT22;24727;51.974;20.868;2024-01-10T10:03:10;-4.20;99.90
38938;DHT22;24727;51.974;20.868;2024-01-10T10:05:38;-4.10;99.90
38938;DHT22;24727;51.974;20.868;2024-01-10T10:08:07;-4.00;99.90
38938;DHT22;24727;51.974;20.868;2024-01-10T10:10:35;-4.10;99.90
38938;DHT22;24727;51.974;20.868;2024-01-10T10:13:01;-4.00;99.90
38938;DHT22;24727;51.974;20.868;2024-01-10T10:15:28;-4.00;99.90
38938;DHT22;24727;51.974;20.868;2024-01-10T10:17:54;-4.00;99.90
38938;DHT22;24727;51.974;20.868;2024-01-10T10:20:21;-3.90;99.90
38938;DHT22;24727;51.974;20.868;2024-01-10T10:23:07;-3.90;99.90
38938;DHT22;24727;51.974;20.868;2024-01-10T10:25:45;-3.90;99.90
38938;DHT22;24727;51.974;20.868;2024-01-10T10:28:13;-3.90;99.90
38938;DHT22;24727;51.974;20.868;2024-01-10T10:30:38;-3.90;99.90
38938;DHT22;24727;51.974;20.868;2024-01-10T10:33:05;-3.80;99.90
38938;DHT22;24727;51.974;20.868;2024-01-10T10:35:33;-3.70;99.90
38938;DHT22;24727;51.974;20.868;2024-01-10T10:37:59;-3.70;99.90
38938;DHT22;24727;51.974;20.868;2024-01-10T10:40:26;-3.60;99.90
38938;DHT22;24727;51.974;20.868;2024-01-10T10:42:55;-3.50;99.90
38938;DHT22;24727;51.974;20.868;2024-01-10T10:45:23;-3.60;99.90
38938;DHT22;24727;51.974;20.868;2024-01-10T10:47:57;-3.60;99.90
38938;DHT22;24727;51.974;20.868;2024-01-10T10:50:23;-3.70;99.90
38938;DHT22;24727;51.974;20.868;2024-01-10T10:52:50;-3.60;99.90
38938;DHT22;24727;51.974;20.868;2024-01-10T10:55:18;-3.70;99.90
38938;DHT22;24727;51.974;20.868;2024-01-10T10:57:48;-3.60;99.90
38938;DHT22;24727;51.974;20.868;2024-01-10T11:00:19;-3.60;99.90
38938;DHT22;24727;51.974;20.868;2024-01-10T11:02:46;-3.60;99.90
38938;DHT22;24727;51.974;20.868;2024-01-10T11:05:12;-3.60;99.90
38938;DHT22;24727;51.974;20.868;2024-01-10T11:07:40;-3.50;99.90
38938;DHT22;24727;51.974;20.868;2024-01-10T11:10:11;-3.50;99.90
38938;DHT22;24727;51.974;20.868;2024-01-10T11:12:54;-3.50;99.90
38938;DHT22;24727;51.974;20.868;2024-01-10T11:15:41;-3.40;99.90
38938;DHT22;24727;51.974;20.868;2024-01-10T11:21:37;-3.40;99.90
38938;DHT22;24727;51.974;20.868;2024-01-10T11:24:09;-3.40;99.90
38938;DHT22;24727;51.974;20.868;2024-01-10T11:26:37;-3.30;99.90
38938;DHT22;24727;51.974;20.868;2024-01-10T11:29:05;-3.30;99.90
38938;DHT22;24727;51.974;20.868;2024-01-10T11:31:32;-3.30;99.90
38938;DHT22;24727;51.974;20.868;2024-01-10T11:33:59;-3.20;99.90
38938;DHT22;24727;51.974;20.868;2024-01-10T11:36:26;-3.20;99.90
38938;DHT22;24727;51.974;20.868;2024-01-10T11:41:32;-3.00;99.90
38938;DHT22;24727;51.974;20.868;2024-01-10T11:46:49;-2.90;99.90
38938;DHT22;24727;51.974;20.868;2024-01-10T11:49:16;-2.80;99.90
38938;DHT22;24727;51.974;20.868;2024-01-10T11:51:53;-2.80;99.90
38938;DHT22;24727;51.974;20.868;2024-01-10T11:54:42;-2.80;99.90
38938;DHT22;24727;51.974;20.868;2024-01-10T11:57:21;-2.60;99.90
38938;DHT22;24727;51.974;20.868;2024-01-10T11:59:50;-2.50;99.90
38938;DHT22;24727;51.974;20.868;2024-01-10T12:02:17;-2.40;99.90
38938;DHT22;24727;51.974;20.868;2024-01-10T12:04:43;-2.30;99.90
38938;DHT22;24727;51.974;20.868;2024-01-10T12:07:09;-2.40;99.90
38938;DHT22;24727;51.974;20.868;2024-01-10T12:09:35;-2.30;99.90
38938;DHT22;24727;51.974;20.868;2024-01-10T12:12:04;-2.30;99.90
38938;DHT22;24727;51.974;20.868;2024-01-10T12:14:30;-2.40;99.90
38938;DHT22;24727;51.974;20.868;2024-01-10T12:17:00;-2.30;99.90
38938;DHT22;24727;51.974;20.868;2024-01-10T12:19:26;-2.30;99.90
38938;DHT22;24727;51.974;20.868;2024-01-10T12:21:52;-2.30;99.90
38938;DHT22;24727;51.974;20.868;2024-01-10T12:24:21;-2.20;99.90
38938;DHT22;24727;51.974;20.868;2024-01-10T12:26:48;-2.30;99.90
38938;DHT22;24727;51.974;20.868;2024-01-10T12:29:17;-2.30;99.90
38938;DHT22;24727;51.974;20.868;2024-01-10T12:31:43;-2.30;99.90
38938;DHT22;24727;51.974;20.868;2024-01-10T12:34:11;-2.30;99.90
38938;DHT22;24727;51.974;20.868;2024-01-10T12:36:37;-2.20;99.90
38938;DHT22;24727;51.974;20.868;2024-01-10T12:39:03;-2.20;99.90
38938;DHT22;24727;51.974;20.868;2024-01-10T12:41:32;-2.10;99.90
38938;DHT22;24727;51.974;20.868;2024-01-10T12:44:00;-2.00;99.90
38938;DHT22;24727;51.974;20.868;2024-01-10T12:46:28;-1.90;99.90
38938;DHT22;24727;51.974;20.868;2024-01-10T12:49:02;-1.90;99.90
38938;DHT22;24727;51.974;20.868;2024-01-10T12:51:29;-2.00;99.90
38938;DHT22;24727;51.974;20.868;2024-01-10T12:53:56;-2.10;99.90
38938;DHT22;24727;51.974;20.868;2024-01-10T12:56:24;-2.10;99.90
38938;DHT22;24727;51.974;20.868;2024-01-10T12:58:50;-2.10;99.90
38938;DHT22;24727;51.974;20.868;2024-01-10T13:01:16;-2.10;99.90
38938;DHT22;24727;51.974;20.868;2024-01-10T13:03:42;-2.10;99.90
38938;DHT22;24727;51.974;20.868;2024-01-10T13:06:09;-2.10;99.90
38938;DHT22;24727;51.974;20.868;2024-01-10T13:08:36;-2.10;99.90
38938;DHT22;24727;51.974;20.868;2024-01-10T13:11:02;-2.10;99.90
38938;DHT22;24727;51.974;20.868;2024-01-10T13:13:35;-2.10;99.90
38938;DHT22;24727;51.974;20.868;2024-01-10T13:16:01;-2.10;99.90
38938;DHT22;24727;51.974;20.868;2024-01-10T13:18:28;-2.10;99.90
38938;DHT22;24727;51.974;20.868;2024-01-10T13:20:55;-2.10;99.90
38938;DHT22;24727;51.974;20.868;2024-01-10T13:23:21;-2.10;99.90
38938;DHT22;24727;51.974;20.868;2024-01-10T13:25:50;-2.00;99.90
38938;DHT22;24727;51.974;20.868;2024-01-10T13:28:20;-2.00;99.90
38938;DHT22;24727;51.974;20.868;2024-01-10T13:30:46;-2.00;99.90
38938;DHT22;24727;51.974;20.868;2024-01-10T13:33:12;-2.00;99.90
38938;DHT22;24727;51.974;20.868;2024-01-10T13:35:39;-2.10;99.90
38938;DHT22;24727;51.974;20.868;2024-01-10T13:38:05;-2.10;99.90
38938;DHT22;24727;51.974;20.868;2024-01-10T13:40:32;-2.10;99.90
38938;DHT22;24727;51.974;20.868;2024-01-10T13:43:00;-2.10;99.90
38938;DHT22;24727;51.974;20.868;2024-01-10T13:45:28;-2.00;99.90
38938;DHT22;24727;51.974;20.868;2024-01-10T13:47:55;-2.10;99.90
38938;DHT22;24727;51.974;20.868;2024-01-10T13:50:21;-2.20;99.90
38938;DHT22;24727;51.974;20.868;2024-01-10T13:52:48;-2.30;99.90
38938;DHT22;24727;51.974;20.868;2024-01-10T13:55:14;-2.30;99.90
38938;DHT22;24727;51.974;20.868;2024-01-10T13:57:40;-2.40;99.90
38938;DHT22;24727;51.974;20.868;2024-01-10T14:00:06;-2.40;99.90
38938;DHT22;24727;51.974;20.868;2024-01-10T14:02:36;-2.40;99.90
38938;DHT22;24727;51.974;20.868;2024-01-10T14:05:02;-2.50;99.90
38938;DHT22;24727;51.974;20.868;2024-01-10T14:07:32;-2.50;99.90
38938;DHT22;24727;51.974;20.868;2024-01-10T14:09:58;-2.50;99.90
38938;DHT22;24727;51.974;20.868;2024-01-10T14:12:24;-2.60;99.90
38938;DHT22;24727;51.974;20.868;2024-01-10T14:14:50;-2.60;99.90
38938;DHT22;24727;51.974;20.868;2024-01-10T14:17:16;-2.60;99.90
38938;DHT22;24727;51.974;20.868;2024-01-10T14:19:42;-2.60;99.90
38938;DHT22;24727;51.974;20.868;2024-01-10T14:22:10;-2.70;99.90
38938;DHT22;24727;51.974;20.868;2024-01-10T14:24:35;-2.70;99.90
38938;DHT22;24727;51.974;20.868;2024-01-10T14:27:01;-2.70;99.90
38938;DHT22;24727;51.974;20.868;2024-01-10T14:29:27;-2.80;99.90
38938;DHT22;24727;51.974;20.868;2024-01-10T14:31:53;-2.80;99.90
38938;DHT22;24727;51.974;20.868;2024-01-10T14:34:19;-2.80;99.90
38938;DHT22;24727;51.974;20.868;2024-01-10T14:36:45;-2.70;99.90
38938;DHT22;24727;51.974;20.868;2024-01-10T14:39:11;-2.70;99.90
38938;DHT22;24727;51.974;20.868;2024-01-10T14:41:41;-2.60;99.90
38938;DHT22;24727;51.974;20.868;2024-01-10T14:44:07;-2.50;99.90
38938;DHT22;24727;51.974;20.868;2024-01-10T14:46:32;-2.40;99.90
38938;DHT22;24727;51.974;20.868;2024-01-10T14:48:58;-2.20;99.90
38938;DHT22;24727;51.974;20.868;2024-01-10T14:51:24;-2.40;99.90
38938;DHT22;24727;51.974;20.868;2024-01-10T14:53:50;-2.60;99.90
38938;DHT22;24727;51.974;20.868;2024-01-10T14:56:17;-2.90;99.90
38938;DHT22;24727;51.974;20.868;2024-01-10T14:58:43;-3.10;99.90
38938;DHT22;24727;51.974;20.868;2024-01-10T15:01:10;-3.30;99.90
38938;DHT22;24727;51.974;20.868;2024-01-10T15:03:36;-3.20;99.90
38938;DHT22;24727;51.974;20.868;2024-01-10T15:06:04;-3.00;99.90
38938;DHT22;24727;51.974;20.868;2024-01-10T15:08:33;-2.80;1.00
38938;DHT22;24727;51.974;20.868;2024-01-10T15:11:02;-2.70;1.00
38938;DHT22;24727;51.974;20.868;2024-01-10T15:13:28;-2.50;1.40
38938;DHT22;24727;51.974;20.868;2024-01-10T15:15:54;-2.50;1.40
38938;DHT22;24727;51.974;20.868;2024-01-10T15:18:20;-2.40;1.00
38938;DHT22;24727;51.974;20.868;2024-01-10T15:20:47;-2.40;1.40
38938;DHT22;24727;51.974;20.868;2024-01-10T15:23:13;-2.40;99.90
38938;DHT22;24727;51.974;20.868;2024-01-10T15:25:39;-2.50;99.90